createdAt,value
2023-04-18T00:01:58.751Z,11.00
2023-04-18T00:04:25.663Z,11.10
2023-04-18T00:06:51.918Z,10.50
2023-04-18T00:09:18.287Z,11.25
2023-04-18T00:11:44.940Z,11.20
2023-04-18T00:14:11.483Z,10.10
2023-04-18T00:16:38.432Z,10.80
2023-04-18T00:19:05.074Z,10.77
2023-04-18T00:21:31.716Z,10.25
2023-04-18T00:23:57.929Z,10.10
2023-04-18T00:26:24.068Z,10.60
2023-04-18T00:28:50.667Z,10.73
2023-04-18T00:31:16.917Z,10.00
2023-04-18T00:33:42.946Z,10.90
2023-04-18T00:36:09.721Z,10.57
2023-04-18T00:38:36.003Z,9.40
2023-04-18T00:41:02.152Z,10.43
2023-04-18T00:43:28.265Z,11.13
2023-04-18T00:45:56.796Z,11.48
2023-04-18T00:48:23.025Z,11.48
2023-04-18T00:50:52.632Z,11.15
2023-04-18T00:53:19.003Z,11.13
2023-04-18T00:55:45.430Z,10.82
2023-04-18T00:58:11.670Z,10.98
2023-04-18T01:00:37.881Z,11.18
2023-04-18T01:03:04.341Z,10.52
2023-04-18T01:05:30.680Z,11.68
2023-04-18T01:08:00.463Z,11.05
2023-04-18T01:10:27.513Z,11.20
2023-04-18T01:13:23.073Z,11.07
2023-04-18T01:15:53.090Z,11.38
2023-04-18T01:18:20.452Z,11.25
2023-04-18T01:20:48.953Z,11.55
2023-04-18T01:23:16.156Z,11.10
2023-04-18T01:25:45.251Z,10.13
2023-04-18T01:28:14.034Z,12.00
2023-04-18T01:30:40.713Z,11.77
2023-04-18T01:33:06.934Z,10.65
2023-04-18T01:35:33.563Z,10.80
2023-04-18T01:38:00.395Z,10.82
2023-04-18T01:40:26.614Z,11.13
2023-04-18T01:42:52.760Z,9.88
2023-04-18T01:45:19.892Z,12.07
2023-04-18T01:47:46.481Z,10.70
2023-04-18T01:50:13.070Z,11.32
2023-04-18T01:52:39.502Z,9.52
2023-04-18T01:55:05.936Z,10.25
2023-04-18T01:57:35.793Z,10.00
2023-04-18T02:00:03.965Z,9.93
2023-04-18T02:02:30.138Z,10.90
2023-04-18T02:04:56.634Z,9.93
2023-04-18T02:07:22.750Z,9.27
2023-04-18T02:09:49.021Z,10.48
2023-04-18T02:12:17.897Z,10.15
2023-04-18T02:14:56.360Z,9.32
2023-04-18T02:17:25.399Z,9.93
2023-04-18T02:19:51.732Z,9.70
2023-04-18T02:22:18.437Z,9.73
2023-04-18T02:24:44.998Z,9.68
2023-04-18T02:27:11.343Z,9.90
2023-04-18T02:29:40.031Z,9.65
2023-04-18T02:32:06.616Z,9.93
2023-04-18T02:34:33.447Z,9.80
2023-04-18T02:36:59.800Z,9.20
2023-04-18T02:39:26.006Z,9.80
2023-04-18T02:41:52.132Z,9.75
2023-04-18T02:44:18.263Z,9.38
2023-04-18T02:46:44.512Z,9.13
2023-04-18T02:49:10.728Z,10.35
2023-04-18T02:51:36.854Z,9.38
2023-04-18T02:54:03.270Z,9.52
2023-04-18T02:56:29.342Z,9.10
2023-04-18T02:58:55.397Z,9.75
2023-04-18T03:01:21.614Z,9.70
2023-04-18T03:03:47.837Z,9.07
2023-04-18T03:06:14.994Z,9.68
2023-04-18T03:08:41.435Z,8.75
2023-04-18T03:11:07.652Z,9.48
2023-04-18T03:13:34.291Z,8.77
2023-04-18T03:16:01.985Z,9.35
2023-04-18T03:18:28.041Z,9.85
2023-04-18T03:20:54.243Z,9.18
2023-04-18T03:23:20.380Z,9.32
2023-04-18T03:25:46.491Z,8.60
2023-04-18T03:28:12.578Z,9.75
2023-04-18T03:30:38.709Z,9.77
2023-04-18T03:33:04.895Z,8.63
2023-04-18T03:35:31.144Z,9.23
2023-04-18T03:37:57.243Z,9.88
2023-04-18T03:40:23.733Z,9.55
2023-04-18T03:42:49.895Z,9.30
2023-04-18T03:45:16.333Z,9.40
2023-04-18T03:47:42.386Z,9.18
2023-04-18T03:50:08.858Z,9.38
2023-04-18T03:52:37.918Z,8.73
2023-04-18T03:55:04.482Z,9.15
2023-04-18T03:57:30.698Z,8.15
2023-04-18T03:59:56.931Z,9.30
2023-04-18T04:02:23.095Z,9.13
2023-04-18T04:04:49.572Z,9.30
2023-04-18T04:07:15.774Z,9.35
2023-04-18T04:09:41.825Z,8.63
2023-04-18T04:12:08.229Z,9.38
2023-04-18T04:14:34.382Z,8.55
2023-04-18T04:17:00.642Z,8.93
2023-04-18T04:19:26.796Z,8.57
2023-04-18T04:21:56.105Z,9.23
2023-04-18T04:24:22.370Z,8.77
2023-04-18T04:26:50.281Z,9.98
2023-04-18T04:29:18.688Z,8.95
2023-04-18T04:31:44.911Z,9.23
2023-04-18T04:34:11.125Z,9.40
2023-04-18T04:36:37.430Z,8.70
2023-04-18T04:39:03.812Z,8.63
2023-04-18T04:41:31.128Z,9.65
2023-04-18T04:44:01.303Z,9.00
2023-04-18T04:46:31.606Z,9.13
2023-04-18T04:48:57.873Z,9.95
2023-04-18T04:51:27.535Z,9.07
2023-04-18T04:53:53.689Z,9.13
2023-04-18T04:56:20.159Z,8.77
2023-04-18T04:58:46.860Z,9.18
2023-04-18T05:01:13.060Z,9.45
2023-04-18T05:03:39.413Z,8.98
2023-04-18T05:06:05.835Z,8.80
2023-04-18T05:08:32.230Z,8.95
2023-04-18T05:10:58.264Z,9.82
2023-04-18T05:13:24.464Z,9.73
2023-04-18T05:15:52.152Z,9.48
2023-04-18T05:18:18.394Z,9.07
2023-04-18T05:20:50.212Z,9.25
2023-04-18T05:23:16.507Z,10.40
2023-04-18T05:25:42.587Z,10.38
2023-04-18T05:28:08.793Z,8.98
2023-04-18T05:30:35.121Z,9.18
2023-04-18T05:33:01.457Z,9.02
2023-04-18T05:35:31.050Z,9.80
2023-04-18T05:38:00.591Z,9.43
2023-04-18T05:40:29.948Z,9.90
2023-04-18T05:42:56.457Z,9.60
2023-04-18T05:45:22.692Z,9.32
2023-04-18T05:47:50.801Z,10.18
2023-04-18T05:50:17.033Z,10.70
2023-04-18T05:52:43.647Z,10.18
2023-04-18T05:55:09.756Z,9.25
2023-04-18T05:57:35.926Z,9.25
2023-04-18T06:00:02.337Z,9.52
2023-04-18T06:02:28.607Z,8.95
2023-04-18T06:04:56.379Z,8.63
2023-04-18T06:07:24.678Z,9.02
2023-04-18T06:09:50.909Z,9.25
2023-04-18T06:12:17.080Z,9.23
2023-04-18T06:14:43.394Z,9.15
2023-04-18T06:17:14.992Z,9.05
2023-04-18T06:19:41.049Z,9.20
2023-04-18T06:22:07.722Z,9.27
2023-04-18T06:24:33.995Z,8.23
2023-04-18T06:27:01.564Z,8.15
2023-04-18T06:29:31.294Z,8.52
2023-04-18T06:31:57.434Z,8.57
2023-04-18T06:34:23.581Z,8.55
2023-04-18T06:36:50.112Z,8.30
2023-04-18T06:39:16.308Z,8.90
2023-04-18T06:41:45.432Z,9.07
2023-04-18T06:44:11.591Z,8.85
2023-04-18T06:46:37.887Z,8.80
2023-04-18T06:49:08.332Z,8.00
2023-04-18T06:51:34.587Z,8.60
2023-04-18T06:54:01.570Z,8.63
2023-04-18T06:56:29.318Z,8.85
2023-04-18T06:58:55.594Z,7.72
2023-04-18T07:01:21.804Z,8.23
2023-04-18T07:03:48.254Z,7.80
2023-04-18T07:06:14.923Z,7.72
2023-04-18T07:08:41.795Z,7.95
2023-04-18T07:11:08.043Z,8.40
2023-04-18T07:13:37.137Z,6.95
2023-04-18T07:16:03.629Z,7.43
2023-04-18T07:18:37.900Z,7.77
2023-04-18T07:21:06.963Z,7.45
2023-04-18T07:23:33.226Z,7.53
2023-04-18T07:26:01.703Z,9.02
2023-04-18T07:28:31.486Z,8.05
2023-04-18T07:30:58.640Z,7.72
2023-04-18T07:33:31.131Z,7.65
2023-04-18T07:35:57.665Z,8.15
2023-04-18T07:38:23.923Z,7.25
2023-04-18T07:40:57.373Z,7.30
2023-04-18T07:43:23.879Z,7.22
2023-04-18T07:45:51.219Z,8.60
2023-04-18T07:48:17.530Z,6.90
2023-04-18T07:50:43.722Z,8.32
2023-04-18T07:53:09.884Z,7.88
2023-04-18T07:55:39.054Z,7.50
2023-04-18T07:58:05.377Z,7.90
2023-04-18T08:00:32.382Z,7.68
2023-04-18T08:02:58.848Z,7.70
2023-04-18T08:05:25.433Z,7.95
2023-04-18T08:07:52.621Z,8.00
2023-04-18T08:10:23.241Z,8.13
2023-04-18T08:12:50.031Z,7.45
2023-04-18T08:15:16.283Z,8.57
2023-04-18T08:17:44.757Z,8.27
2023-04-18T08:20:12.562Z,7.95
2023-04-18T08:22:49.999Z,7.50
2023-04-18T08:25:23.550Z,8.10
2023-04-18T08:27:49.840Z,8.60
2023-04-18T08:30:20.355Z,8.68
2023-04-18T08:32:47.038Z,7.82
2023-04-18T08:35:16.608Z,8.48
2023-04-18T08:37:45.633Z,8.00
2023-04-18T08:40:12.271Z,8.20
2023-04-18T08:42:44.160Z,9.10
2023-04-18T08:45:15.062Z,7.95
2023-04-18T08:47:42.228Z,8.20
2023-04-18T08:50:09.996Z,8.02
2023-04-18T08:52:37.761Z,8.43
2023-04-18T08:55:05.204Z,7.88
2023-04-18T08:57:31.681Z,8.73
2023-04-18T09:00:00.547Z,7.88
2023-04-18T09:02:58.499Z,8.80
2023-04-18T09:05:26.573Z,8.80
2023-04-18T09:07:54.302Z,8.38
2023-04-18T09:10:32.954Z,8.25
2023-04-18T09:13:04.124Z,8.50
2023-04-18T09:15:31.208Z,7.55
2023-04-18T09:18:02.010Z,8.38
2023-04-18T09:20:40.639Z,7.90
2023-04-18T09:23:17.952Z,7.50
2023-04-18T09:25:48.471Z,7.45
2023-04-18T09:28:28.867Z,7.43
2023-04-18T09:30:56.747Z,8.05
2023-04-18T09:33:33.823Z,7.63
2023-04-18T09:36:38.257Z,7.55
2023-04-18T09:39:06.735Z,7.75
2023-04-18T09:41:32.881Z,8.23
2023-04-18T09:44:14.549Z,8.10
2023-04-18T09:46:41.863Z,7.35
2023-04-18T09:49:12.781Z,7.35
2023-04-18T09:51:44.183Z,6.50
2023-04-18T09:54:11.039Z,7.25
2023-04-18T09:56:39.828Z,7.00
2023-04-18T09:59:09.943Z,7.82
2023-04-18T10:01:36.534Z,8.25
2023-04-18T10:04:06.110Z,7.32
2023-04-18T10:06:39.417Z,7.35
2023-04-18T10:09:08.140Z,7.25
2023-04-18T10:11:34.482Z,7.07
2023-04-18T10:14:04.614Z,6.85
2023-04-18T10:16:35.641Z,7.10
2023-04-18T10:19:34.932Z,7.38
2023-04-18T10:22:01.920Z,7.15
2023-04-18T10:24:49.425Z,7.68
2023-04-18T10:27:17.346Z,6.90
2023-04-18T10:30:01.348Z,8.60
2023-04-18T10:32:27.582Z,7.07
2023-04-18T10:34:53.883Z,7.72
2023-04-18T10:37:24.215Z,8.57
2023-04-18T10:39:53.430Z,7.72
2023-04-18T10:42:45.594Z,7.07
2023-04-18T10:45:25.384Z,8.00
2023-04-18T10:48:32.325Z,7.22
2023-04-18T10:51:18.282Z,7.47
2023-04-18T10:53:56.588Z,7.63
2023-04-18T10:56:23.285Z,7.35
2023-04-18T10:58:51.429Z,7.25
2023-04-18T11:01:25.975Z,7.78
2023-04-18T11:03:56.236Z,7.38
2023-04-18T11:06:23.254Z,7.50
2023-04-18T11:08:50.152Z,7.63
2023-04-18T11:11:16.290Z,7.78
2023-04-18T11:13:56.200Z,7.43
2023-04-18T11:16:29.413Z,6.80
2023-04-18T11:18:55.866Z,7.68
2023-04-18T11:21:30.457Z,7.40
2023-04-18T11:24:00.639Z,7.68
2023-04-18T11:26:27.190Z,7.25
2023-04-18T11:28:57.094Z,7.28
2023-04-18T11:31:24.403Z,7.03
2023-04-18T11:33:51.469Z,7.10
2023-04-18T11:36:19.723Z,6.53
2023-04-18T11:38:46.135Z,7.00
2023-04-18T11:41:14.373Z,7.35
2023-04-18T11:43:48.186Z,6.75
2023-04-18T11:46:14.300Z,7.53
2023-04-18T11:48:42.162Z,7.75
2023-04-18T11:51:31.933Z,6.60
2023-04-18T11:54:01.166Z,7.38
2023-04-18T11:56:27.332Z,6.55
2023-04-18T11:58:53.451Z,6.60
2023-04-18T12:01:21.325Z,6.93
2023-04-18T12:04:07.802Z,6.97
2023-04-18T12:06:52.223Z,7.05
2023-04-18T12:09:24.231Z,6.72
2023-04-18T12:12:00.719Z,6.40
2023-04-18T12:14:28.051Z,7.35
2023-04-18T12:16:54.648Z,6.25
2023-04-18T12:19:27.217Z,6.85
2023-04-18T12:22:01.459Z,6.38
2023-04-18T12:24:31.798Z,7.38
2023-04-18T12:27:03.384Z,8.32
2023-04-18T12:29:33.480Z,8.05
2023-04-18T12:31:59.659Z,7.95
2023-04-18T12:34:26.003Z,8.43
2023-04-18T12:36:54.845Z,8.43
2023-04-18T12:39:22.295Z,8.30
2023-04-18T12:41:49.803Z,7.80
2023-04-18T12:44:16.504Z,7.75
2023-04-18T12:46:42.668Z,7.60
2023-04-18T12:49:11.399Z,8.52
2023-04-18T12:51:43.827Z,8.40
2023-04-18T12:54:09.896Z,7.80
2023-04-18T12:56:38.879Z,8.32
2023-04-18T12:59:07.944Z,8.40
2023-04-18T13:01:34.286Z,8.82
2023-04-18T13:04:11.672Z,8.10
2023-04-18T13:06:38.953Z,8.57
2023-04-18T13:09:05.205Z,8.32
2023-04-18T13:11:31.432Z,7.70
2023-04-18T13:13:57.681Z,9.23
2023-04-18T13:16:24.042Z,8.02
2023-04-18T13:18:50.795Z,8.02
2023-04-18T13:21:17.070Z,8.68
2023-04-18T13:23:43.536Z,9.50
2023-04-18T13:26:10.049Z,8.05
2023-04-18T13:28:36.242Z,7.68
2023-04-18T13:31:02.758Z,8.98
2023-04-18T13:33:28.842Z,8.23
2023-04-18T13:35:55.009Z,8.85
2023-04-18T13:38:21.293Z,9.55
2023-04-18T13:40:47.398Z,9.38
2023-04-18T13:43:15.051Z,10.15
2023-04-18T13:45:43.431Z,9.80
2023-04-18T13:48:09.657Z,9.05
2023-04-18T13:50:36.049Z,9.40
2023-04-18T13:53:02.313Z,9.18
2023-04-18T13:55:28.537Z,9.02
2023-04-18T13:57:54.854Z,8.15
2023-04-18T14:00:21.183Z,8.07
2023-04-18T14:02:50.448Z,8.70
2023-04-18T14:05:16.732Z,7.53
2023-04-18T14:07:43.092Z,7.80
2023-04-18T14:10:10.038Z,8.00
2023-04-18T14:12:36.329Z,7.38
2023-04-18T14:15:03.070Z,7.40
2023-04-18T14:17:29.848Z,7.47
2023-04-18T14:19:56.065Z,8.10
2023-04-18T14:22:22.227Z,6.93
2023-04-18T14:24:48.735Z,7.72
2023-04-18T14:27:15.040Z,7.13
2023-04-18T14:29:41.386Z,7.28
2023-04-18T14:32:08.168Z,7.38
2023-04-18T14:34:36.640Z,7.38
2023-04-18T14:37:03.759Z,7.55
2023-04-18T14:39:30.667Z,6.93
2023-04-18T14:41:57.233Z,7.43
2023-04-18T14:44:23.452Z,7.28
2023-04-18T14:46:49.850Z,6.90
2023-04-18T14:49:16.442Z,6.70
2023-04-18T14:51:42.772Z,6.60
2023-04-18T14:54:08.875Z,6.53
2023-04-18T14:56:35.236Z,6.32
2023-04-18T14:59:02.539Z,6.75
2023-04-18T15:01:28.984Z,6.75
2023-04-18T15:03:55.582Z,6.60
2023-04-18T15:06:22.968Z,6.68
2023-04-18T15:08:49.188Z,7.13
2023-04-18T15:11:15.363Z,6.25
2023-04-18T15:13:41.532Z,5.88
2023-04-18T15:16:07.795Z,5.70
2023-04-18T15:18:34.129Z,5.38
2023-04-18T15:21:01.238Z,5.72
2023-04-18T15:23:27.477Z,5.18
2023-04-18T15:25:53.759Z,5.10
2023-04-18T15:28:19.890Z,5.25
2023-04-18T15:30:48.558Z,5.25
2023-04-18T15:33:15.433Z,4.35
2023-04-18T15:35:44.790Z,4.30
2023-04-18T15:38:11.450Z,4.72
2023-04-18T15:40:37.612Z,4.40
2023-04-18T15:43:03.836Z,4.45
2023-04-18T15:45:29.951Z,4.13
2023-04-18T15:47:56.078Z,4.53
2023-04-18T15:50:25.569Z,4.60
2023-04-18T15:52:52.663Z,4.00
2023-04-18T15:55:18.876Z,4.38
2023-04-18T15:57:45.433Z,4.32
2023-04-18T16:00:16.008Z,3.60
2023-04-18T16:02:43.340Z,3.65
2023-04-18T16:05:11.433Z,3.83
2023-04-18T16:07:39.037Z,3.10
2023-04-18T16:10:08.292Z,3.67
2023-04-18T16:12:34.685Z,3.20
2023-04-18T16:15:00.867Z,3.60
2023-04-18T16:17:27.152Z,3.00
2023-04-18T16:19:53.812Z,3.10
2023-04-18T16:22:20.335Z,2.83
2023-04-18T16:24:47.193Z,3.20
2023-04-18T16:27:14.338Z,2.72
2023-04-18T16:29:40.488Z,3.08
2023-04-18T16:32:07.619Z,2.70
2023-04-18T16:34:33.988Z,3.55
2023-04-18T16:37:00.413Z,3.00
2023-04-18T16:39:28.766Z,2.80
2023-04-18T16:41:54.852Z,2.53
2023-04-18T16:44:20.977Z,2.58
2023-04-18T16:46:50.230Z,2.40
2023-04-18T16:49:16.377Z,2.20
2023-04-18T16:51:42.464Z,2.42
2023-04-18T16:54:16.313Z,2.05
2023-04-18T16:56:44.329Z,2.47
2023-04-18T16:59:10.322Z,2.35
2023-04-18T17:01:43.697Z,2.50
2023-04-18T17:04:09.968Z,2.20
2023-04-18T17:06:36.173Z,2.45
2023-04-18T17:09:05.700Z,2.42
2023-04-18T17:11:34.545Z,2.10
2023-04-18T17:14:01.109Z,2.25
2023-04-18T17:16:27.228Z,2.10
2023-04-18T17:18:53.434Z,1.83
2023-04-18T17:21:19.482Z,1.73
2023-04-18T17:23:45.939Z,1.88
2023-04-18T17:26:12.139Z,2.35
2023-04-18T17:28:38.265Z,2.67
2023-04-18T17:31:04.443Z,1.98
2023-04-18T17:33:31.119Z,2.55
2023-04-18T17:35:57.576Z,2.67
2023-04-18T17:38:23.730Z,2.53
2023-04-18T17:40:58.104Z,2.40
2023-04-18T17:43:24.217Z,2.63
2023-04-18T17:45:50.358Z,2.70
2023-04-18T17:48:16.564Z,2.60
2023-04-18T17:50:42.575Z,2.40
2023-04-18T17:53:11.919Z,3.00
2023-04-18T17:55:42.346Z,2.90
2023-04-18T17:58:11.587Z,2.80
2023-04-18T18:00:37.701Z,2.92
2023-04-18T18:03:04.601Z,3.00
2023-04-18T18:05:30.792Z,3.17
2023-04-18T18:07:58.751Z,3.03
2023-04-18T18:10:25.283Z,3.15
2023-04-18T18:12:51.241Z,3.33
2023-04-18T18:15:17.804Z,3.55
2023-04-18T18:17:44.005Z,3.28
2023-04-18T18:20:11.276Z,3.25
2023-04-18T18:22:37.465Z,3.20
2023-04-18T18:25:04.964Z,2.90
2023-04-18T18:27:31.074Z,2.78
2023-04-18T18:29:57.156Z,3.15
2023-04-18T18:32:26.255Z,2.80
2023-04-18T18:34:52.421Z,3.50
2023-04-18T18:37:18.533Z,3.05
2023-04-18T18:39:44.722Z,2.80
2023-04-18T18:42:10.759Z,2.85
2023-04-18T18:44:36.953Z,3.38
2023-04-18T18:47:02.977Z,3.38
2023-04-18T18:49:29.064Z,3.47
2023-04-18T18:51:55.188Z,3.00
2023-04-18T18:54:21.519Z,3.00
2023-04-18T18:56:47.832Z,3.50
2023-04-18T18:59:16.356Z,3.00
2023-04-18T19:01:42.713Z,3.20
2023-04-18T19:04:09.418Z,2.85
2023-04-18T19:06:36.914Z,2.92
2023-04-18T19:09:05.020Z,2.80
2023-04-18T19:11:31.162Z,2.80
2023-04-18T19:13:57.199Z,3.17
2023-04-18T19:16:23.435Z,3.15
2023-04-18T19:18:50.127Z,3.25
2023-04-18T19:21:16.802Z,3.47
2023-04-18T19:23:43.127Z,2.90
2023-04-18T19:26:09.809Z,2.72
2023-04-18T19:28:36.318Z,2.95
2023-04-18T19:31:02.703Z,3.17
2023-04-18T19:33:29.085Z,3.13
2023-04-18T19:36:00.421Z,3.00
2023-04-18T19:38:27.024Z,3.35
2023-04-18T19:40:53.177Z,2.97
2023-04-18T19:43:19.379Z,2.72
2023-04-18T19:45:45.794Z,2.95
2023-04-18T19:48:12.319Z,3.08
2023-04-18T19:50:40.003Z,3.03
2023-04-18T19:53:06.486Z,3.10
2023-04-18T19:55:32.665Z,3.60
2023-04-18T19:57:59.146Z,3.40
2023-04-18T20:00:25.558Z,3.72
2023-04-18T20:02:51.956Z,3.53
2023-04-18T20:05:18.594Z,3.55
2023-04-18T20:07:45.028Z,3.92
2023-04-18T20:10:11.344Z,4.03
2023-04-18T20:12:37.552Z,3.55
2023-04-18T20:15:04.213Z,3.55
2023-04-18T20:17:30.651Z,3.63
2023-04-18T20:19:57.136Z,4.00
2023-04-18T20:22:26.544Z,3.50
2023-04-18T20:24:53.501Z,3.67
2023-04-18T20:27:22.596Z,3.75
2023-04-18T20:29:48.793Z,3.40
2023-04-18T20:32:15.948Z,3.88
2023-04-18T20:34:42.182Z,3.22
2023-04-18T20:37:11.532Z,3.67
2023-04-18T20:39:39.580Z,4.00
2023-04-18T20:42:05.932Z,3.33
2023-04-18T20:44:34.271Z,3.67
2023-04-18T20:47:00.730Z,4.00
2023-04-18T20:49:26.906Z,3.90
2023-04-18T20:51:53.110Z,3.42
2023-04-18T20:54:19.406Z,4.35
2023-04-18T20:56:48.491Z,4.43
2023-04-18T20:59:14.893Z,3.97
2023-04-18T21:01:41.593Z,3.80
2023-04-18T21:04:07.910Z,3.97
2023-04-18T21:06:34.658Z,3.40
2023-04-18T21:09:01.056Z,3.90
2023-04-18T21:11:27.318Z,4.35
2023-04-18T21:13:53.521Z,4.13
2023-04-18T21:16:22.292Z,4.22
2023-04-18T21:18:51.107Z,4.55
2023-04-18T21:21:17.622Z,3.97
2023-04-18T21:23:44.160Z,4.75
2023-04-18T21:26:12.650Z,4.57
2023-04-18T21:29:00.823Z,4.30
2023-04-18T21:31:28.962Z,4.65
2023-04-18T21:33:56.799Z,5.10
2023-04-18T21:36:24.295Z,5.07
2023-04-18T21:38:54.574Z,4.60
2023-04-18T21:41:21.142Z,4.60
2023-04-18T21:43:47.658Z,4.15
2023-04-18T21:46:13.961Z,4.50
2023-04-18T21:48:41.412Z,4.95
2023-04-18T21:51:08.923Z,4.82
2023-04-18T21:53:35.384Z,3.92
2023-04-18T21:56:01.488Z,4.75
2023-04-18T21:58:27.900Z,4.65
2023-04-18T22:00:54.044Z,4.38
2023-04-18T22:03:23.870Z,5.07
2023-04-18T22:05:52.226Z,4.50
2023-04-18T22:08:19.898Z,4.43
2023-04-18T22:10:46.112Z,4.35
2023-04-18T22:13:12.257Z,4.55
2023-04-18T22:15:39.442Z,4.13
2023-04-18T22:18:07.947Z,3.67
2023-04-18T22:20:35.749Z,4.20
2023-04-18T22:23:03.832Z,4.25
2023-04-18T22:25:30.426Z,4.07
2023-04-18T22:27:56.696Z,4.10
2023-04-18T22:30:22.949Z,3.72
2023-04-18T22:32:49.252Z,3.92
2023-04-18T22:35:15.854Z,4.00
2023-04-18T22:37:42.100Z,3.47
2023-04-18T22:40:11.993Z,3.38
2023-04-18T22:42:38.894Z,3.42
2023-04-18T22:45:09.208Z,3.25
2023-04-18T22:47:35.473Z,3.00
2023-04-18T22:50:01.895Z,4.05
2023-04-18T22:52:30.147Z,3.28
2023-04-18T22:54:56.274Z,2.83
2023-04-18T22:57:22.461Z,2.55
2023-04-18T22:59:48.704Z,3.50
2023-04-18T23:02:15.069Z,3.03
2023-04-18T23:04:41.965Z,3.33
2023-04-18T23:07:08.814Z,2.85
2023-04-18T23:09:35.344Z,3.22
2023-04-18T23:12:02.146Z,2.50
2023-04-18T23:14:29.042Z,2.20
2023-04-18T23:16:55.436Z,2.67
2023-04-18T23:19:21.691Z,2.97
2023-04-18T23:21:49.520Z,2.63
2023-04-18T23:24:16.315Z,2.42
2023-04-18T23:26:42.495Z,2.63
2023-04-18T23:29:08.625Z,1.95
2023-04-18T23:31:34.922Z,2.38
2023-04-18T23:34:01.247Z,2.60
2023-04-18T23:36:27.448Z,2.25
2023-04-18T23:38:53.682Z,2.30
2023-04-18T23:41:19.889Z,2.63
2023-04-18T23:43:46.047Z,2.30
2023-04-18T23:46:15.551Z,2.60
2023-04-18T23:48:41.877Z,2.35
2023-04-18T23:51:12.760Z,2.38
2023-04-18T23:53:41.804Z,2.72
2023-04-18T23:56:10.776Z,2.85
2023-04-18T23:58:36.955Z,2.28
